Map

Track Data

SID SEASON NUMBER BASIN SUBBASIN NAME ISO_TIME NATURE LAT LON WMO_WIND WMO_PRES WMO_AGENCY TRACK_TYPE DIST2LAND LANDFALL IFLAG USA_AGENCY USA_ATCF_ID USA_LAT USA_LON USA_RECORD USA_STATUS USA_WIND USA_PRES USA_SSHS USA_R34_NE USA_R34_SE USA_R34_SW USA_R34_NW USA_R50_NE USA_R50_SE USA_R50_SW USA_R50_NW USA_R64_NE USA_R64_SE USA_R64_SW USA_R64_NW USA_POCI USA_ROCI USA_RMW USA_EYE TOKYO_LAT TOKYO_LON TOKYO_GRADE TOKYO_WIND TOKYO_PRES TOKYO_R50_DIR TOKYO_R50_LONG TOKYO_R50_SHORT TOKYO_R30_DIR TOKYO_R30_LONG TOKYO_R30_SHORT TOKYO_LAND CMA_LAT CMA_LON CMA_CAT CMA_WIND CMA_PRES HKO_LAT HKO_LON HKO_CAT HKO_WIND HKO_PRES NEWDELHI_LAT NEWDELHI_LON NEWDELHI_GRADE NEWDELHI_WIND NEWDELHI_PRES NEWDELHI_CI NEWDELHI_DP NEWDELHI_POCI REUNION_LAT REUNION_LON REUNION_TYPE REUNION_WIND REUNION_PRES REUNION_TNUM REUNION_CI REUNION_RMW REUNION_R34_NE REUNION_R34_SE REUNION_R34_SW REUNION_R34_NW REUNION_R50_NE REUNION_R50_SE REUNION_R50_SW REUNION_R50_NW REUNION_R64_NE REUNION_R64_SE REUNION_R64_SW REUNION_R64_NW BOM_LAT BOM_LON BOM_TYPE BOM_WIND BOM_PRES BOM_TNUM BOM_CI BOM_RMW BOM_R34_NE BOM_R34_SE BOM_R34_SW BOM_R34_NW BOM_R50_NE BOM_R50_SE BOM_R50_SW BOM_R50_NW BOM_R64_NE BOM_R64_SE BOM_R64_SW BOM_R64_NW BOM_ROCI BOM_POCI BOM_EYE BOM_POS_METHOD BOM_PRES_METHOD NADI_LAT NADI_LON NADI_CAT NADI_WIND NADI_PRES WELLINGTON_LAT WELLINGTON_LON WELLINGTON_WIND WELLINGTON_PRES DS824_LAT DS824_LON DS824_STAGE DS824_WIND DS824_PRES TD9636_LAT TD9636_LON TD9636_STAGE TD9636_WIND TD9636_PRES TD9635_LAT TD9635_LON TD9635_WIND TD9635_PRES TD9635_ROCI NEUMANN_LAT NEUMANN_LON NEUMANN_CLASS NEUMANN_WIND NEUMANN_PRES MLC_LAT MLC_LON MLC_CLASS MLC_WIND MLC_PRES USA_GUST BOM_GUST BOM_GUST_PER REUNION_GUST REUNION_GUST_PER USA_SEAHGT USA_SEARAD_NE USA_SEARAD_SE USA_SEARAD_SW USA_SEARAD_NW STORM_SPEED STORM_DIR
1991015N02087 1991 3 NI BB NOT_NAMED 1991-01-14 18:00:00 NR 2.30000 86.5000 main 710 640 O_____________ jtwc_io IO011991 2.30000 86.5000 20 -1 14 321
1991015N02087 1991 3 NI BB NOT_NAMED 1991-01-14 21:00:00 NR 2.83503 86.0601 main 640 561 P_____________ IO011991 2.83503 86.0601 20 -1 14 318
1991015N02087 1991 3 NI BB NOT_NAMED 1991-01-15 00:00:00 NR 3.30000 85.6000 main 561 497 O_____________ jtwc_io IO011991 3.30000 85.6000 20 -1 13 310
1991015N02087 1991 3 NI BB NOT_NAMED 1991-01-15 03:00:00 NR 3.64498 85.1075 main 497 433 P_____________ IO011991 3.64498 85.1075 20 -1 12 301
1991015N02087 1991 3 NI BB NOT_NAMED 1991-01-15 06:00:00 NR 3.90000 84.6000 main 433 378 O_____________ jtwc_io IO011991 3.90000 84.6000 20 -1 11 295
1991015N02087 1991 3 NI BB NOT_NAMED 1991-01-15 09:00:00 NR 4.12247 84.1000 main 378 324 P_____________ IO011991 4.12247 84.1000 20 -1 11 292
1991015N02087 1991 3 NI BB NOT_NAMED 1991-01-15 12:00:00 NR 4.30000 83.6000 main 324 281 O_____________ jtwc_io IO011991 4.30000 83.6000 20 -1 10 289
1991015N02087 1991 3 NI BB NOT_NAMED 1991-01-15 15:00:00 NR 4.45745 83.1075 main 272 229 P_____________ IO011991 4.45745 83.1075 20 -1 10 287
1991015N02087 1991 3 NI BB NOT_NAMED 1991-01-15 18:00:00 NR 4.60000 82.6000 main 229 180 O_____________ jtwc_io IO011991 4.60000 82.6000 20 -1 11 286
1991015N02087 1991 3 NI BB NOT_NAMED 1991-01-15 21:00:00 NR 4.76497 82.0575 main 180 145 P_____________ IO011991 4.76497 82.0575 20 -1 11 285
1991015N02087 1991 3 NI BB NOT_NAMED 1991-01-16 00:00:00 NR 4.90000 81.5000 main 145 110 O_____________ jtwc_io IO011991 4.90000 81.5000 20 -1 11 281
1991015N02087 1991 3 NI BB NOT_NAMED 1991-01-16 03:00:00 NR 4.97995 80.9500 main 110 100 P_____________ IO011991 4.97995 80.9500 20 -1 11 275
1991015N02087 1991 3 NI BB NOT_NAMED 1991-01-16 06:00:00 NR 5.00000 80.4000 main 103 103 O_____________ jtwc_io IO011991 5.00000 80.4000 20 -1 11 270
1991015N02087 1991 3 NI BB NOT_NAMED 1991-01-16 09:00:00 NR 4.97245 79.8500 main 124 124 P_____________ IO011991 4.97245 79.8500 20 -1 11 265
1991015N02087 1991 3 NI BB NOT_NAMED 1991-01-16 12:00:00 NR 4.90000 79.3000 main 165 165 O_____________ jtwc_io IO011991 4.90000 79.3000 20 -1 11 262
1991015N02087 1991 3 NI BB NOT_NAMED 1991-01-16 15:00:00 NR 4.81496 78.7500 main 212 212 P_____________ IO011991 4.81496 78.7500 20 -1 11 260
1991015N02087 1991 3 NI BB NOT_NAMED 1991-01-16 18:00:00 NR 4.70000 78.2000 main 269 269 O_____________ jtwc_io IO011991 4.70000 78.2000 20 -1 11 258
1991015N02087 1991 3 NI AS NOT_NAMED 1991-01-16 21:00:00 NR 4.57247 77.6425 main 329 329 P_____________ IO011991 4.57247 77.6425 22 -1 11 255
1991015N02087 1991 3 NI AS NOT_NAMED 1991-01-17 00:00:00 NR 4.40000 77.1000 main 388 388 O_____________ jtwc_io IO011991 4.40000 77.1000 25 -1 12 248
1991015N02087 1991 3 NI AS NOT_NAMED 1991-01-17 03:00:00 NR 4.14250 76.5625 main 453 453 P_____________ IO011991 4.14250 76.5625 27 -1 11 243
1991015N02087 1991 3 NI AS NOT_NAMED 1991-01-17 06:00:00 NR 3.90000 76.1000 main 488 488 O_____________ jtwc_io IO011991 3.90000 76.1000 30 -1 9 245
1991015N02087 1991 3 NI AS NOT_NAMED 1991-01-17 09:00:00 NR 3.76996 75.7626 main 509 509 P_____________ IO011991 3.76996 75.7626 32 -1 6 252
1991015N02087 1991 3 NI AS NOT_NAMED 1991-01-17 12:00:00 NR 3.70000 75.5000 main 531 531 O_____________ jtwc_io IO011991 3.70000 75.5000 35 0 5 255
1991015N02087 1991 3 NI AS NOT_NAMED 1991-01-17 15:00:00 NR 3.63499 75.2425 main 555 555 P_____________ IO011991 3.63499 75.2425 35 -1 5 259
1991015N02087 1991 3 NI AS NOT_NAMED 1991-01-17 18:00:00 NR 3.60000 75.0000 main 564 564 O_____________ jtwc_io IO011991 3.60000 75.0000 35 0 5 265
1991015N02087 1991 3 NI AS NOT_NAMED 1991-01-17 21:00:00 NR 3.59249 74.7500 main 575 575 P_____________ IO011991 3.59249 74.7500 35 -1 5 270
1991015N02087 1991 3 NI AS NOT_NAMED 1991-01-18 00:00:00 NR 3.60000 74.5000 main 591 591 O_____________ jtwc_io IO011991 3.60000 74.5000 35 0 5 268
1991015N02087 1991 3 NI AS NOT_NAMED 1991-01-18 03:00:00 NR 3.57748 74.2650 main 603 603 P_____________ IO011991 3.57748 74.2650 35 -1 5 270
1991015N02087 1991 3 NI AS NOT_NAMED 1991-01-18 06:00:00 NR 3.60000 74.0000 main 622 622 O_____________ jtwc_io IO011991 3.60000 74.0000 35 0 6 282
1991015N02087 1991 3 NI AS NOT_NAMED 1991-01-18 09:00:00 NR 3.70497 73.6875 main 633 632 P_____________ IO011991 3.70497 73.6875 35 -1 8 293
1991015N02087 1991 3 NI AS NOT_NAMED 1991-01-18 12:00:00 NR 3.90000 73.3000 main 646 645 O_____________ jtwc_io IO011991 3.90000 73.3000 35 0 10 300
1991015N02087 1991 3 NI AS NOT_NAMED 1991-01-18 15:00:00 NR 4.19249 72.8300 main 661 661 P_____________ IO011991 4.19249 72.8300 35 -1 12 301
1991015N02087 1991 3 NI AS NOT_NAMED 1991-01-18 18:00:00 NR 4.50000 72.3000 main 676 676 O_____________ jtwc_io IO011991 4.50000 72.3000 35 0 12 297
1991015N02087 1991 3 NI AS NOT_NAMED 1991-01-18 21:00:00 NR 4.72991 71.7800 main 700 700 P_____________ IO011991 4.72991 71.7800 35 -1 12 290
1991015N02087 1991 3 NI AS NOT_NAMED 1991-01-19 00:00:00 NR 4.90000 71.2000 main 737 737 O_____________ jtwc_io IO011991 4.90000 71.2000 35 0 13 283
1991015N02087 1991 3 NI AS NOT_NAMED 1991-01-19 03:00:00 NR 5.02999 70.5225 main 793 793 P_____________ IO011991 5.02999 70.5225 32 -1 14 278
1991015N02087 1991 3 NI AS NOT_NAMED 1991-01-19 06:00:00 NR 5.10000 69.8000 main 853 853 O_____________ jtwc_io IO011991 5.10000 69.8000 30 -1 14 273
1991015N02087 1991 3 NI AS NOT_NAMED 1991-01-19 09:00:00 NR 5.11497 69.0850 main 921 921 P_____________ IO011991 5.11497 69.0850 30 -1 14 270
1991015N02087 1991 3 NI AS NOT_NAMED 1991-01-19 12:00:00 NR 5.10000 68.4000 main 990 990 O_____________ jtwc_io IO011991 5.10000 68.4000 30 -1 13 269
1991015N02087 1991 3 NI AS NOT_NAMED 1991-01-19 15:00:00 NR 5.09990 67.7850 main 1051 1051 P_____________ IO011991 5.09990 67.7850 30 -1 12 270
1991015N02087 1991 3 NI AS NOT_NAMED 1991-01-19 18:00:00 NR 5.10000 67.2000 main 1111 1111 O_____________ jtwc_io IO011991 5.10000 67.2000 30 -1 12 269
1991015N02087 1991 3 NI AS NOT_NAMED 1991-01-19 21:00:00 NR 5.08503 66.5625 main 1173 1173 P_____________ IO011991 5.08503 66.5625 30 -1 12 270
1991015N02087 1991 3 NI AS NOT_NAMED 1991-01-20 00:00:00 NR 5.10000 66.0000 main 1234 1234 O_____________ jtwc_io IO011991 5.10000 66.0000 30 -1 10 276
1991015N02087 1991 3 NI AS NOT_NAMED 1991-01-20 03:00:00 NR 5.17997 65.6000 main 1271 1271 P_____________ IO011991 5.17997 65.6000 27 -1 7 286
1991015N02087 1991 3 NI AS NOT_NAMED 1991-01-20 06:00:00 NR 5.30000 65.3000 main 1297 O_____________ jtwc_io IO011991 5.30000 65.3000 XX 25 -5 6 292

About IBTrACS Database

This database is a web-friendly format of International Best Track Archive for Climate Stewardship (IBTrACS), a global best track data archive curated by NOAA dating back to 1842.

Updated: 2021-10-25